Time;durP1;ratioP1;P1;durP2;ratioP2;P2;SDS_P1;SDS_P2;PMS_P1;PMS_P2;Temp;Humidity;BMP_temperature;BMP_pressure;BME280_temperature;BME280_humidity;BME280_pressure;Samples;Min_cycle;Max_cycle;Signal;HPM_P1;HPM_P2
2024/01/13 00:02:57;;;;;;;48.50;21.23;;;;;;;3.12;58.53;99972.16;6734597;29;20220;-81
2024/01/13 00:06:19;;;;;;;45.20;20.70;;;;;;;2.59;58.12;99965.97;6732246;29;20837;-81
2024/01/13 00:09:40;;;;;;;51.87;21.37;;;;;;;2.66;58.05;99961.81;6729491;29;20669;-81
2024/01/13 00:13:02;;;;;;;49.07;22.17;;;;;;;2.52;58.95;99963.94;6732870;29;20239;-82
2024/01/13 00:16:25;;;;;;;60.50;24.17;;;;;;;2.04;60.24;99966.13;6732658;29;20276;-82
2024/01/13 00:19:46;;;;;;;50.53;22.43;;;;;;;2.39;59.81;99964.13;6734363;29;20753;-82
2024/01/13 00:23:08;;;;;;;54.97;22.93;;;;;;;2.19;60.78;99937.44;6733788;29;20262;-82
2024/01/13 00:26:29;;;;;;;50.07;24.33;;;;;;;2.32;60.88;99949.63;6734295;29;20332;-82
2024/01/13 00:29:51;;;;;;;53.87;25.03;;;;;;;2.37;60.41;99946.59;6734930;29;20219;-82
2024/01/13 00:33:14;;;;;;;58.13;24.77;;;;;;;2.38;59.79;99945.59;6733379;29;20208;-82
2024/01/13 00:36:35;;;;;;;55.00;23.20;;;;;;;2.52;59.62;99922.22;6727144;29;20227;-81
2024/01/13 00:39:57;;;;;;;59.03;25.40;;;;;;;2.13;60.83;99924.66;6727589;29;20216;-82
2024/01/13 00:43:18;;;;;;;54.93;24.67;;;;;;;1.95;61.99;99934.94;6729728;29;20636;-82
2024/01/13 00:46:41;;;;;;;44.17;21.57;;;;;;;1.94;61.58;99914.66;6737742;29;20380;-81
2024/01/13 00:50:04;;;;;;;50.63;23.73;;;;;;;2.37;61.09;99934.09;6750322;29;20268;-81
2024/01/13 00:53:26;;;;;;;54.23;26.43;;;;;;;2.15;60.31;99926.22;6749753;29;20214;-81
2024/01/13 00:56:47;;;;;;;51.30;23.30;;;;;;;2.20;60.70;99929.31;6729462;29;20280;-81
2024/01/13 01:00:10;;;;;;;57.47;24.20;;;;;;;2.42;60.71;99920.44;6737972;29;20212;-81
2024/01/13 01:03:31;;;;;;;56.07;24.47;;;;;;;2.54;60.27;99925.56;6754717;29;20212;-81
2024/01/13 01:06:54;;;;;;;49.20;22.90;;;;;;;2.45;60.35;99928.16;6743981;29;20240;-81
2024/01/13 01:10:16;;;;;;;50.13;22.60;;;;;;;2.12;60.74;99913.16;6737346;29;20243;-82
2024/01/13 01:13:38;;;;;;;51.83;23.50;;;;;;;2.17;61.73;99910.09;6738072;29;20214;-81
2024/01/13 01:16:59;;;;;;;51.53;22.40;;;;;;;2.24;60.96;99920.13;6733932;29;20229;-82
2024/01/13 01:20:21;;;;;;;55.37;23.50;;;;;;;2.64;60.15;99905.22;6734047;29;20236;-81
2024/01/13 01:23:44;;;;;;;52.83;22.97;;;;;;;2.45;59.24;99904.22;6733451;29;20215;-82
2024/01/13 01:27:05;;;;;;;53.03;23.80;;;;;;;2.38;59.50;99903.03;6731850;29;20318;-81
2024/01/13 01:30:27;;;;;;;52.07;24.47;;;;;;;2.33;59.44;99903.41;6733265;29;20723;-82
2024/01/13 01:33:49;;;;;;;56.97;24.27;;;;;;;2.45;60.24;99894.41;6740832;29;20344;-82
2024/01/13 01:37:10;;;;;;;45.77;23.93;;;;;;;2.79;59.49;99889.75;6731767;29;20341;-82
2024/01/13 01:40:34;;;;;;;56.70;24.03;;;;;;;2.15;60.16;99886.31;6733624;29;20213;-82
2024/01/13 01:43:56;;;;;;;54.80;23.93;;;;;;;2.00;60.67;99892.88;6733296;29;20699;-81
2024/01/13 01:47:18;;;;;;;57.40;26.03;;;;;;;2.27;60.39;99874.66;6732989;29;20251;-81
2024/01/13 01:50:39;;;;;;;54.23;26.00;;;;;;;2.70;59.96;99874.53;6733666;29;20248;-82
2024/01/13 01:54:01;;;;;;;52.23;25.63;;;;;;;2.33;59.88;99876.81;6731954;29;20302;-82
2024/01/13 01:57:24;;;;;;;61.47;24.83;;;;;;;2.33;60.41;99857.31;6731753;29;20278;-82
2024/01/13 02:00:46;;;;;;;55.77;23.33;;;;;;;2.38;60.23;99871.94;6733050;29;20236;-81
2024/01/13 02:04:08;;;;;;;54.10;23.80;;;;;;;2.41;59.50;99878.81;6732705;29;20217;-82
2024/01/13 02:07:32;;;;;;;60.50;25.77;;;;;;;2.47;60.16;99870.31;6751876;29;20243;-82
2024/01/13 02:10:53;;;;;;;45.73;24.40;;;;;;;2.82;58.85;99853.06;6753488;29;20209;-80
2024/01/13 02:14:16;;;;;;;54.97;26.10;;;;;;;2.82;58.85;99860.19;6736882;29;20228;-80
2024/01/13 02:17:38;;;;;;;51.63;24.53;;;;;;;2.67;58.56;99842.88;6730666;29;20272;-81
2024/01/13 02:21:00;;;;;;;53.33;22.97;;;;;;;2.76;58.83;99866.91;6732877;29;20269;-82
2024/01/13 02:24:22;;;;;;;49.63;24.37;;;;;;;2.50;59.36;99854.97;6732112;29;20201;-81
2024/01/13 02:27:44;;;;;;;51.67;22.90;;;;;;;2.68;59.85;99850.75;6731923;29;20311;-81
2024/01/13 02:31:05;;;;;;;49.03;23.13;;;;;;;2.46;58.97;99845.53;6730496;29;20368;-82
2024/01/13 02:34:27;;;;;;;45.70;22.87;;;;;;;2.66;59.36;99850.00;6731732;29;20666;-82
2024/01/13 02:37:48;;;;;;;49.57;21.57;;;;;;;2.35;59.91;99840.25;6733050;29;20299;-80
2024/01/13 02:41:11;;;;;;;48.03;20.93;;;;;;;1.86;60.96;99836.47;6733464;29;20224;-81
2024/01/13 02:44:33;;;;;;;45.00;21.13;;;;;;;1.89;60.47;99849.53;6732721;29;20209;-81
2024/01/13 02:47:59;;;;;;;52.53;22.87;;;;;;;2.18;59.70;99835.50;6732037;29;20319;-82
2024/01/13 02:51:21;;;;;;;50.30;21.60;;;;;;;2.26;59.45;99846.34;6731988;29;20215;-80
2024/01/13 02:54:43;;;;;;;51.80;23.13;;;;;;;2.01;59.90;99829.91;6731074;29;20235;-83
2024/01/13 02:58:06;;;;;;;52.03;22.47;;;;;;;2.14;60.05;99838.56;6731247;29;20300;-82
2024/01/13 03:01:29;;;;;;;55.33;25.67;;;;;;;2.13;59.98;99837.69;6732476;29;20700;-80
2024/01/13 03:04:51;;;;;;;51.73;23.47;;;;;;;2.40;59.78;99838.06;6733101;29;20243;-80
2024/01/13 03:08:12;;;;;;;51.80;24.43;;;;;;;2.43;59.31;99821.81;6734078;29;20373;-81
2024/01/13 03:11:34;;;;;;;54.57;25.70;;;;;;;2.51;58.74;99810.53;6735405;29;20577;-81
2024/01/13 03:14:57;;;;;;;58.43;26.47;;;;;;;2.61;58.54;99822.09;6733531;29;20240;-82
2024/01/13 03:18:18;;;;;;;55.50;26.23;;;;;;;2.63;57.56;99813.00;6730896;29;20323;-82
2024/01/13 03:21:40;;;;;;;56.80;25.33;;;;;;;2.28;58.26;99808.97;6731938;29;20305;-82
2024/01/13 03:25:02;;;;;;;56.43;24.57;;;;;;;2.26;58.84;99810.94;6731946;29;20709;-81
2024/01/13 03:28:24;;;;;;;57.87;24.33;;;;;;;2.12;58.97;99809.41;6732301;29;20315;-81
2024/01/13 03:31:47;;;;;;;52.40;24.90;;;;;;;2.52;58.17;99807.75;6727702;29;20205;-80
2024/01/13 03:35:08;;;;;;;62.20;26.13;;;;;;;2.45;57.65;99790.63;6733197;29;20322;-82
2024/01/13 03:38:30;;;;;;;61.70;28.00;;;;;;;2.47;57.95;99803.78;6732805;29;20270;-81
2024/01/13 03:41:51;;;;;;;48.17;24.67;;;;;;;2.44;57.79;99801.38;6733217;29;20228;-82
2024/01/13 03:45:13;;;;;;;62.13;28.03;;;;;;;2.46;57.98;99804.75;6733832;29;20769;-81
2024/01/13 03:48:36;;;;;;;58.67;26.47;;;;;;;2.54;57.79;99787.16;6733536;29;20706;-81
2024/01/13 03:51:57;;;;;;;55.53;26.90;;;;;;;2.00;58.74;99806.91;6738561;29;20348;-80
2024/01/13 03:55:19;;;;;;;64.83;28.10;;;;;;;2.48;58.29;99816.97;6732065;29;20212;-82
2024/01/13 03:58:40;;;;;;;62.63;28.90;;;;;;;2.20;58.17;99796.31;6733035;29;20288;-80
2024/01/13 04:02:02;;;;;;;57.10;26.13;;;;;;;2.60;57.56;99791.97;6733512;29;20208;-82
2024/01/13 04:05:25;;;;;;;74.23;29.70;;;;;;;2.33;58.85;99791.66;6732935;29;20224;-82
2024/01/13 04:08:46;;;;;;;58.90;27.60;;;;;;;2.26;58.54;99766.53;6733182;29;20677;-82
2024/01/13 04:12:08;;;;;;;59.33;27.93;;;;;;;2.25;59.23;99790.63;6733612;29;20635;-81
2024/01/13 04:15:32;;;;;;;60.73;27.83;;;;;;;1.91;59.18;99759.84;6733073;29;20212;-82
2024/01/13 04:18:54;;;;;;;60.57;26.93;;;;;;;1.86;59.29;99762.88;6738849;29;20235;-80
2024/01/13 04:22:17;;;;;;;67.23;29.37;;;;;;;2.30;58.83;99745.84;6728756;29;20310;-80
2024/01/13 04:25:38;;;;;;;58.80;27.17;;;;;;;2.23;58.65;99757.97;6728945;29;20343;-79
2024/01/13 04:29:00;;;;;;;63.33;27.13;;;;;;;2.16;59.40;99754.13;6730756;29;20236;-79
2024/01/13 04:32:21;;;;;;;65.50;28.73;;;;;;;1.92;59.12;99761.50;6733205;29;20208;-79
2024/01/13 04:35:43;;;;;;;58.43;27.10;;;;;;;1.66;60.29;99754.88;6741554;29;20212;-79
2024/01/13 04:39:05;;;;;;;67.77;31.07;;;;;;;1.72;61.26;99754.34;6735046;29;20792;-79
2024/01/13 04:42:27;;;;;;;65.30;28.10;;;;;;;1.99;59.93;99738.75;6735178;29;20867;-79
2024/01/13 04:45:48;;;;;;;81.53;29.87;;;;;;;2.20;59.14;99756.41;6734998;29;20387;-79
2024/01/13 04:49:10;;;;;;;66.13;28.80;;;;;;;2.37;58.61;99757.66;6735503;29;20383;-80
2024/01/13 04:52:32;;;;;;;64.87;27.70;;;;;;;2.50;57.73;99740.50;6735771;29;20212;-79
2024/01/13 04:55:55;;;;;;;62.10;28.90;;;;;;;2.70;57.73;99728.13;6734988;29;20279;-79
2024/01/13 04:59:16;;;;;;;57.43;27.40;;;;;;;2.70;57.57;99726.31;6734418;29;20319;-80
2024/01/13 05:02:38;;;;;;;59.37;28.47;;;;;;;2.69;57.64;99734.41;6735395;29;20345;-81
2024/01/13 05:05:59;;;;;;;62.80;25.43;;;;;;;3.03;56.41;99720.69;6734687;29;20293;-79
2024/01/13 05:09:21;;;;;;;62.17;28.73;;;;;;;2.80;56.40;99735.19;6735696;29;20389;-79
2024/01/13 05:12:44;;;;;;;60.60;28.67;;;;;;;2.80;56.66;99724.53;6734543;29;20267;-80
2024/01/13 05:16:06;;;;;;;60.17;29.70;;;;;;;2.47;57.60;99715.94;6743479;29;20356;-79
2024/01/13 05:19:27;;;;;;;60.13;28.67;;;;;;;2.27;58.39;99724.81;6736196;29;20240;-80
2024/01/13 05:22:49;;;;;;;64.50;28.40;;;;;;;2.57;57.60;99723.03;6737159;29;20264;-79
2024/01/13 05:26:10;;;;;;;65.43;29.20;;;;;;;2.59;57.26;99720.25;6737095;29;20678;-81
2024/01/13 05:29:33;;;;;;;55.87;27.70;;;;;;;2.55;56.88;99729.47;6735501;29;20356;-79
2024/01/13 05:32:54;;;;;;;63.13;27.23;;;;;;;2.39;58.45;99719.28;6735154;29;20296;-80
2024/01/13 05:36:17;;;;;;;64.30;28.13;;;;;;;2.63;57.62;99722.50;6733061;29;20204;-79
2024/01/13 05:39:38;;;;;;;61.27;28.40;;;;;;;2.47;57.63;99719.47;6718758;29;20276;-79
2024/01/13 05:43:00;;;;;;;69.27;28.00;;;;;;;2.63;57.86;99738.47;6733478;29;20711;-79
2024/01/13 05:46:23;;;;;;;61.80;27.80;;;;;;;2.65;57.90;99719.72;6732220;29;20239;-79
2024/01/13 05:49:44;;;;;;;56.50;25.50;;;;;;;2.78;57.57;99731.78;6732865;29;20287;-80
2024/01/13 05:53:06;;;;;;;58.93;28.33;;;;;;;2.50;57.44;99716.56;6727464;29;20251;-81
2024/01/13 05:56:27;;;;;;;70.50;26.37;;;;;;;1.95;57.70;99718.72;6730469;29;20216;-80
2024/01/13 05:59:50;;;;;;;61.80;27.00;;;;;;;2.16;58.62;99738.19;6731789;29;20352;-80
2024/01/13 06:03:14;;;;;;;55.90;26.17;;;;;;;2.15;58.45;99724.06;6731395;29;20217;-83
2024/01/13 06:06:35;;;;;;;51.83;24.17;;;;;;;2.27;57.60;99730.13;6733330;29;20228;-82
2024/01/13 06:09:57;;;;;;;53.97;24.83;;;;;;;1.91;58.45;99722.59;6735135;29;20212;-82
2024/01/13 06:13:18;;;;;;;67.23;27.07;;;;;;;2.10;58.37;99725.41;6733970;29;20613;-84
2024/01/13 06:16:40;;;;;;;60.13;27.33;;;;;;;2.49;57.80;99717.50;6736851;29;20247;-82
2024/01/13 06:20:03;;;;;;;61.60;26.63;;;;;;;2.26;58.27;99717.81;6733081;29;20304;-81
2024/01/13 06:23:25;;;;;;;64.47;29.13;;;;;;;2.23;57.85;99710.94;6736250;29;20216;-82
2024/01/13 06:26:46;;;;;;;57.13;25.83;;;;;;;2.49;57.47;99714.84;6736166;29;20256;-82
2024/01/13 06:30:10;;;;;;;63.17;28.97;;;;;;;2.72;57.53;99708.38;6736672;29;20227;-80
2024/01/13 06:33:32;;;;;;;68.03;28.60;;;;;;;2.22;57.95;99709.25;6735245;29;20215;-80
2024/01/13 06:36:55;;;;;;;76.47;29.43;;;;;;;2.23;58.63;99707.41;6735469;29;20307;-83
2024/01/13 06:40:17;;;;;;;68.97;26.87;;;;;;;1.92;58.63;99711.84;6736251;29;20212;-82
2024/01/13 06:43:38;;;;;;;56.63;26.87;;;;;;;2.34;58.58;99705.53;6734984;29;20333;-82
2024/01/13 06:47:00;;;;;;;60.57;26.57;;;;;;;1.83;58.92;99699.31;6733377;29;20319;-82
2024/01/13 06:50:21;;;;;;;68.73;29.80;;;;;;;2.25;58.05;99694.84;6733166;29;20428;-82
2024/01/13 06:53:44;;;;;;;68.33;31.23;;;;;;;2.36;58.39;99697.44;6734069;29;20295;-83
2024/01/13 06:57:05;;;;;;;66.57;28.93;;;;;;;2.34;57.67;99712.66;6731235;29;20268;-81
2024/01/13 07:00:27;;;;;;;73.83;29.13;;;;;;;2.80;57.80;99715.69;6731675;29;20318;-82
2024/01/13 07:03:49;;;;;;;68.43;28.60;;;;;;;2.79;57.17;99698.84;6733356;29;20200;-83
2024/01/13 07:07:10;;;;;;;67.57;29.00;;;;;;;2.93;56.59;99687.84;6733278;29;20236;-82
2024/01/13 07:10:34;;;;;;;49.50;24.43;;;;;;;2.97;55.54;99669.78;6734940;29;20286;-83
2024/01/13 07:13:56;;;;;;;66.27;29.10;;;;;;;2.97;55.81;99669.78;6736394;29;20224;-82
2024/01/13 07:17:17;;;;;;;63.47;26.70;;;;;;;3.00;55.22;99689.00;6736101;29;20370;-82
2024/01/13 07:20:39;;;;;;;63.87;28.47;;;;;;;2.73;55.97;99703.91;6736223;29;20230;-85
2024/01/13 07:24:00;;;;;;;64.37;27.10;;;;;;;2.60;56.25;99695.31;6732141;29;20416;-85
2024/01/13 07:27:23;;;;;;;54.93;23.77;;;;;;;2.72;56.70;99696.91;6730605;29;20769;-83
2024/01/13 07:30:44;;;;;;;67.87;27.10;;;;;;;2.71;56.06;99650.78;6731780;29;20260;-83
2024/01/13 07:34:06;;;;;;;57.87;26.90;;;;;;;3.13;55.90;99675.44;6731063;29;20211;-83
2024/01/13 07:37:27;;;;;;;53.63;24.70;;;;;;;3.24;55.19;99662.81;6730781;29;20257;-84
2024/01/13 07:40:49;;;;;;;59.33;26.93;;;;;;;2.99;55.69;99674.00;6731367;29;20741;-81
2024/01/13 07:44:12;;;;;;;52.43;26.03;;;;;;;3.09;55.18;99656.22;6718590;29;20263;-82
2024/01/13 07:47:33;;;;;;;64.53;25.93;;;;;;;2.84;55.80;99645.22;6729581;29;20367;-83
2024/01/13 07:50:55;;;;;;;57.17;25.17;;;;;;;3.12;55.15;99665.75;6732532;29;20216;-82
2024/01/13 07:54:16;;;;;;;60.00;25.47;;;;;;;2.70;55.53;99665.06;6731640;29;20227;-83
2024/01/13 07:57:38;;;;;;;49.57;24.30;;;;;;;2.31;55.92;99649.91;6735416;29;20364;-82
2024/01/13 08:01:02;;;;;;;56.00;25.10;;;;;;;2.40;56.29;99674.88;6732169;29;20581;-81
2024/01/13 08:04:24;;;;;;;51.57;23.93;;;;;;;2.76;56.85;99672.53;6733919;29;20215;-80
2024/01/13 08:07:45;;;;;;;50.77;24.87;;;;;;;2.76;55.91;99669.00;6736036;29;20266;-82
2024/01/13 08:11:07;;;;;;;55.63;24.90;;;;;;;2.39;57.38;99682.03;6739885;29;20353;-82
2024/01/13 08:14:29;;;;;;;55.90;25.07;;;;;;;2.00;58.47;99621.63;6722457;29;20208;-81
2024/01/13 08:17:52;;;;;;;58.63;24.67;;;;;;;2.72;56.64;99649.78;6739467;29;20242;-81
2024/01/13 08:21:13;;;;;;;60.20;28.47;;;;;;;2.72;55.70;99667.59;6730801;29;20223;-82
2024/01/13 08:24:35;;;;;;;58.87;27.63;;;;;;;2.61;55.41;99668.53;6738884;29;20741;-81
2024/01/13 08:27:56;;;;;;;64.37;28.27;;;;;;;2.75;55.49;99673.50;6737634;29;20232;-79
2024/01/13 08:31:18;;;;;;;69.23;30.20;;;;;;;2.79;55.44;99664.25;6739050;29;20201;-81
2024/01/13 08:34:41;;;;;;;65.80;30.60;;;;;;;2.94;55.09;99678.88;6737604;29;20236;-81
2024/01/13 08:38:02;;;;;;;68.63;31.13;;;;;;;2.42;55.04;99675.63;6735509;29;20330;-81
2024/01/13 08:41:24;;;;;;;72.57;32.57;;;;;;;2.55;54.56;99678.88;6736634;29;20228;-82
2024/01/13 08:44:45;;;;;;;76.70;33.30;;;;;;;2.62;55.33;99661.41;6740886;29;20240;-81
2024/01/13 08:48:07;;;;;;;75.27;32.07;;;;;;;2.62;54.80;99661.41;6744974;29;20315;-84
2024/01/13 08:51:30;;;;;;;68.33;31.97;;;;;;;2.81;54.33;99674.78;6746195;29;20212;-82
2024/01/13 08:54:51;;;;;;;67.93;30.17;;;;;;;2.59;54.91;99686.47;6738140;29;20254;-83
2024/01/13 08:58:13;;;;;;;72.00;31.70;;;;;;;2.64;54.39;99678.94;6735280;29;20232;-84
2024/01/13 09:01:34;;;;;;;71.13;33.53;;;;;;;2.50;55.22;99687.28;6736946;29;20253;-81
2024/01/13 09:04:56;;;;;;;69.60;32.90;;;;;;;2.88;55.31;99689.22;6744442;29;20227;-82
2024/01/13 09:08:18;;;;;;;66.87;29.50;;;;;;;3.14;54.37;99677.09;6743110;29;20228;-82
2024/01/13 09:11:42;;;;;;;76.70;34.00;;;;;;;2.89;54.51;99681.09;6751428;29;20212;-83
2024/01/13 09:15:06;;;;;;;67.67;31.73;;;;;;;3.16;55.88;99686.66;6746326;29;20215;-83
2024/01/13 09:18:27;;;;;;;68.60;28.80;;;;;;;3.21;54.68;99663.09;6745230;29;20229;-84
2024/01/13 09:21:49;;;;;;;70.37;30.37;;;;;;;3.47;54.54;99682.91;6747875;29;20278;-84
2024/01/13 09:25:12;;;;;;;61.80;30.27;;;;;;;3.37;54.12;99670.56;6743533;29;20302;-83
2024/01/13 09:28:33;;;;;;;57.00;31.30;;;;;;;3.10;55.74;99657.91;6740294;29;20331;-84
2024/01/13 09:31:55;;;;;;;70.37;32.53;;;;;;;3.53;56.32;99690.34;6737048;29;20212;-81
2024/01/13 09:35:16;;;;;;;56.17;28.93;;;;;;;3.57;54.14;99690.91;6739198;29;20306;-80
2024/01/13 09:38:38;;;;;;;66.40;31.67;;;;;;;2.56;54.95;99691.22;6737893;29;20244;-81
2024/01/13 09:42:02;;;;;;;58.87;28.77;;;;;;;3.08;54.61;99689.13;6738581;29;20268;-81
2024/01/13 09:45:24;;;;;;;56.30;27.07;;;;;;;3.03;54.65;99702.06;6745014;29;20229;-82
2024/01/13 09:48:46;;;;;;;52.03;24.97;;;;;;;3.02;54.34;99676.38;6740439;29;20329;-81
2024/01/13 09:52:08;;;;;;;49.60;23.27;;;;;;;3.19;53.83;99675.69;6740434;29;20835;-82
2024/01/13 09:55:30;;;;;;;42.03;21.87;;;;;;;3.39;54.40;99668.59;6747254;29;20236;-81
2024/01/13 09:58:52;;;;;;;44.17;21.70;;;;;;;3.37;53.34;99650.06;6739253;29;20332;-82
2024/01/13 10:02:14;;;;;;;41.13;20.97;;;;;;;3.97;51.38;99635.56;6731129;29;20348;-81
2024/01/13 10:05:35;;;;;;;42.27;20.47;;;;;;;4.08;51.80;99627.41;6737445;29;20262;-82
2024/01/13 10:08:57;;;;;;;33.13;18.27;;;;;;;3.77;51.44;99621.41;6737274;29;20373;-82
2024/01/13 10:12:19;;;;;;;39.40;19.33;;;;;;;3.72;51.91;99649.50;6736843;29;20213;-83
2024/01/13 10:15:41;;;;;;;46.47;22.07;;;;;;;3.65;52.48;99627.91;6737972;29;20262;-82
2024/01/13 10:19:05;;;;;;;31.90;17.53;;;;;;;3.79;50.96;99622.09;6743672;29;20438;-83
2024/01/13 10:22:27;;;;;;;39.60;20.00;;;;;;;4.04;51.79;99616.19;6736780;29;20272;-81
2024/01/13 10:25:49;;;;;;;44.97;21.73;;;;;;;4.00;50.56;99601.44;6735889;29;20249;-86
2024/01/13 10:29:11;;;;;;;43.53;22.50;;;;;;;3.82;51.30;99626.31;6734874;29;20260;-83
2024/01/13 10:32:34;;;;;;;50.03;23.37;;;;;;;3.25;52.37;99626.38;6734268;29;20299;-86
2024/01/13 10:35:55;;;;;;;49.63;25.37;;;;;;;3.99;51.88;99629.13;6731127;29;20212;-80
2024/01/13 10:39:18;;;;;;;57.90;27.07;;;;;;;4.29;51.44;99604.84;6746226;29;20327;-81
2024/01/13 10:42:45;;;;;;;53.87;25.63;;;;;;;4.07;51.26;99625.72;6722516;29;20289;-81
2024/01/13 10:46:10;;;;;;;47.60;24.47;;;;;;;3.82;51.63;99612.97;6713470;29;20241;-82
2024/01/13 10:49:34;;;;;;;44.10;22.70;;;;;;;3.71;51.95;99614.00;6707760;29;20240;-83
2024/01/13 10:52:59;;;;;;;24.20;14.37;;;;;;;3.62;51.37;99598.88;6708361;29;20243;-82
2024/01/13 10:56:21;;;;;;;21.47;13.53;;;;;;;3.26;52.72;99580.09;6720075;29;20205;-82
2024/01/13 10:59:43;;;;;;;145.40;48.37;;;;;;;3.39;52.75;99557.50;6734678;29;20284;-82
2024/01/13 11:03:06;;;;;;;37.07;20.60;;;;;;;3.54;52.90;99557.91;6739861;29;20297;-85
2024/01/13 11:06:30;;;;;;;62.33;31.77;;;;;;;3.39;52.50;99557.50;6729423;29;20213;-84
2024/01/13 11:09:53;;;;;;;43.70;20.13;;;;;;;3.52;52.24;99541.19;6732077;29;20323;-82
2024/01/13 11:13:19;;;;;;;31.33;16.77;;;;;;;3.90;51.39;99552.59;6732101;29;20239;-82
2024/01/13 11:16:44;;;;;;;43.10;23.57;;;;;;;3.27;52.59;99558.63;6731542;29;20287;-83
2024/01/13 11:20:07;;;;;;;35.13;19.10;;;;;;;3.39;53.27;99554.84;6733389;29;20277;-80
2024/01/13 11:23:37;;;;;;;30.00;15.80;;;;;;;4.13;52.00;99556.59;6731605;29;20224;-83
2024/01/13 11:26:59;;;;;;;36.80;19.13;;;;;;;4.31;51.75;99544.16;6732004;29;20243;-82
2024/01/13 11:30:30;;;;;;;20.40;13.13;;;;;;;3.97;51.90;99539.53;6732581;29;20215;-82
2024/01/13 11:33:51;;;;;;;36.17;19.40;;;;;;;4.35;51.73;99513.50;6732464;29;20275;-84
2024/01/13 11:37:13;;;;;;;44.60;22.50;;;;;;;4.40;52.00;99492.56;6742279;29;20259;-86
2024/01/13 11:40:36;;;;;;;42.93;20.47;;;;;;;4.46;51.72;99457.25;6732152;29;20390;-84
2024/01/13 11:43:57;;;;;;;44.67;23.57;;;;;;;4.01;52.15;99410.22;6733274;29;20295;-85
2024/01/13 11:47:28;;;;;;;63.73;30.23;;;;;;;4.08;52.34;99419.28;6731986;29;20782;-84
2024/01/13 11:50:50;;;;;;;64.87;29.67;;;;;;;4.18;52.14;99412.91;6732763;29;20197;-84
2024/01/13 11:54:12;;;;;;;56.20;29.47;;;;;;;4.27;51.79;99424.50;6732312;29;20219;-85
2024/01/13 11:57:37;;;;;;;65.77;30.77;;;;;;;4.25;52.24;99463.84;6739573;29;20281;-84
2024/01/13 12:00:59;;;;;;;63.63;32.23;;;;;;;4.27;52.19;99476.06;6730133;29;20216;-83
2024/01/13 12:04:20;;;;;;;62.87;30.67;;;;;;;3.61;51.18;99455.84;6729379;29;20269;-83
2024/01/13 12:07:42;;;;;;;58.93;30.67;;;;;;;3.76;51.55;99450.88;6731712;29;20236;-83
2024/01/13 12:11:04;;;;;;;62.93;31.87;;;;;;;3.49;52.53;99456.19;6734660;29;20244;-84
2024/01/13 12:14:27;;;;;;;64.73;31.13;;;;;;;3.41;52.29;99443.56;6735343;29;20217;-82
2024/01/13 12:17:52;;;;;;;57.40;30.03;;;;;;;3.73;52.04;99422.69;6734304;29;20316;-83
2024/01/13 12:21:15;;;;;;;62.67;30.70;;;;;;;2.98;52.61;99431.75;6733893;29;20216;-84
2024/01/13 12:24:37;;;;;;;65.47;30.77;;;;;;;3.16;53.83;99419.38;6734226;29;20751;-84
2024/01/13 12:27:59;;;;;;;69.63;31.33;;;;;;;3.54;52.21;99396.09;6734524;29;20232;-83
2024/01/13 12:31:21;;;;;;;70.13;31.90;;;;;;;3.41;52.54;99403.59;6735758;29;20267;-82
2024/01/13 12:34:44;;;;;;;66.00;31.40;;;;;;;3.52;51.71;99421.22;6739781;29;20257;-81
2024/01/13 12:38:06;;;;;;;67.17;32.00;;;;;;;3.69;51.74;99405.31;6738356;29;20243;-80
2024/01/13 12:41:28;;;;;;;63.23;30.20;;;;;;;3.32;52.73;99406.31;6731825;29;20216;-80
2024/01/13 12:44:49;;;;;;;60.47;29.43;;;;;;;3.49;52.32;99398.38;6733455;29;20757;-81
2024/01/13 12:48:12;;;;;;;70.43;31.57;;;;;;;3.59;51.47;99383.19;6732149;29;20286;-80
2024/01/13 12:51:34;;;;;;;69.83;31.63;;;;;;;3.38;52.57;99352.41;6731672;29;20213;-79
2024/01/13 12:54:56;;;;;;;63.63;31.97;;;;;;;3.53;52.17;99361.59;6736406;29;20260;-81
2024/01/13 12:58:17;;;;;;;60.43;29.47;;;;;;;3.57;52.88;99342.50;6736952;29;20316;-81
2024/01/13 13:01:39;;;;;;;61.43;30.17;;;;;;;3.55;52.53;99341.81;6736679;29;20279;-81
2024/01/13 13:05:03;;;;;;;65.30;29.80;;;;;;;3.12;53.21;99306.13;6727344;29;20296;-80
2024/01/13 13:08:24;;;;;;;72.57;31.63;;;;;;;3.40;53.45;99313.13;6735877;29;20705;-80
2024/01/13 13:11:46;;;;;;;69.43;33.10;;;;;;;3.54;53.46;99324.13;6736390;29;20201;-80
2024/01/13 13:15:08;;;;;;;75.43;32.33;;;;;;;3.71;51.89;99328.66;6731380;29;20257;-82
2024/01/13 13:18:29;;;;;;;62.50;30.17;;;;;;;3.72;51.92;99311.69;6735672;29;20286;-81
2024/01/13 13:21:53;;;;;;;58.73;29.07;;;;;;;3.65;52.24;99294.59;6734624;29;20346;-81
2024/01/13 13:25:15;;;;;;;62.63;31.87;;;;;;;3.58;52.05;99316.66;6735498;29;20208;-80
2024/01/13 13:28:37;;;;;;;61.30;31.63;;;;;;;4.17;51.50;99331.16;6736861;29;20239;-81
2024/01/13 13:32:03;;;;;;;73.87;32.90;;;;;;;3.97;52.15;99337.66;6736550;29;20201;-81
2024/01/13 13:35:26;;;;;;;59.73;30.23;;;;;;;4.28;50.27;99327.41;6737170;29;20189;-81
2024/01/13 13:38:49;;;;;;;51.60;28.07;;;;;;;3.84;52.34;99342.47;6747088;29;20773;-82
2024/01/13 13:42:10;;;;;;;63.53;30.63;;;;;;;4.18;51.31;99332.84;6738276;29;20729;-82
2024/01/13 13:45:32;;;;;;;62.67;31.37;;;;;;;4.58;50.24;99313.66;6737598;29;20239;-86
2024/01/13 13:48:53;;;;;;;54.23;28.77;;;;;;;4.28;50.13;99319.41;6737055;29;20330;-82
2024/01/13 13:52:15;;;;;;;56.70;27.93;;;;;;;4.28;50.01;99322.09;6712952;29;20237;-83
2024/01/13 13:55:38;;;;;;;59.87;29.50;;;;;;;4.22;50.28;99312.03;6711410;29;20301;-84
2024/01/13 13:58:59;;;;;;;59.53;29.63;;;;;;;3.99;51.19;99308.97;6733121;29;20240;-83
2024/01/13 14:02:21;;;;;;;53.13;26.70;;;;;;;4.11;50.73;99296.25;6736658;29;20280;-83
2024/01/13 14:05:42;;;;;;;51.07;26.87;;;;;;;3.84;51.79;99288.31;6736458;29;20361;-83
2024/01/13 14:09:05;;;;;;;50.80;27.27;;;;;;;3.90;51.88;99293.03;6739236;29;20323;-83
2024/01/13 14:12:27;;;;;;;57.47;27.67;;;;;;;3.98;51.10;99261.97;6739502;29;20208;-83
2024/01/13 14:15:49;;;;;;;59.97;28.90;;;;;;;4.11;51.52;99299.75;6744251;29;20220;-85
2024/01/13 14:19:11;;;;;;;56.80;27.97;;;;;;;4.22;50.69;99288.84;6741027;29;20305;-83
2024/01/13 14:22:34;;;;;;;46.17;25.70;;;;;;;4.30;50.49;99294.25;6739160;29;20678;-83
2024/01/13 14:25:55;;;;;;;57.13;28.50;;;;;;;3.75;50.59;99295.41;6737153;29;20209;-83
2024/01/13 14:29:18;;;;;;;55.33;26.30;;;;;;;3.92;51.84;99299.91;6737560;29;20878;-83
2024/01/13 14:32:40;;;;;;;46.23;26.00;;;;;;;3.23;53.64;99306.75;6737227;29;20209;-83
2024/01/13 14:36:02;;;;;;;55.70;27.33;;;;;;;3.77;52.36;99282.75;6737381;29;20211;-83
2024/01/13 14:39:24;;;;;;;54.67;25.63;;;;;;;4.07;51.71;99279.69;6737949;29;20235;-83
2024/01/13 14:42:45;;;;;;;52.07;26.30;;;;;;;4.20;50.91;99298.00;6738062;29;20231;-83
2024/01/13 14:46:08;;;;;;;51.10;26.67;;;;;;;4.24;51.30;99275.38;6737487;29;20286;-83
2024/01/13 14:49:30;;;;;;;58.53;26.13;;;;;;;4.54;51.18;99283.75;6737325;29;20323;-83
2024/01/13 14:52:51;;;;;;;72.70;33.30;;;;;;;4.60;50.72;99285.81;6738263;29;20239;-82
2024/01/13 14:56:13;;;;;;;55.60;26.17;;;;;;;4.00;51.96;99270.63;6737963;29;20330;-83
2024/01/13 14:59:34;;;;;;;56.37;26.20;;;;;;;4.34;51.48;99286.78;6738230;29;20241;-83
2024/01/13 15:02:57;;;;;;;45.60;25.13;;;;;;;4.27;50.40;99288.38;6732215;29;20249;-84
2024/01/13 15:06:19;;;;;;;44.50;24.30;;;;;;;4.15;50.67;99286.94;6746460;29;20272;-85
2024/01/13 15:09:40;;;;;;;50.20;24.50;;;;;;;4.23;51.35;99271.00;6737225;29;20328;-84
2024/01/13 15:13:02;;;;;;;44.23;23.17;;;;;;;4.42;50.64;99276.19;6739620;29;20406;-83
2024/01/13 15:16:23;;;;;;;44.33;22.80;;;;;;;4.45;50.84;99265.19;6743917;29;20223;-84
2024/01/13 15:19:47;;;;;;;43.43;23.23;;;;;;;4.24;51.30;99284.19;6737952;29;20230;-83
2024/01/13 15:23:08;;;;;;;44.80;24.07;;;;;;;4.50;50.58;99282.41;6737978;29;20670;-85
2024/01/13 15:26:30;;;;;;;44.30;24.27;;;;;;;4.27;50.96;99272.38;6740818;29;20256;-83
2024/01/13 15:29:54;;;;;;;50.80;26.20;;;;;;;4.46;50.95;99250.84;6733270;29;20236;-83
2024/01/13 15:33:16;;;;;;;49.77;24.03;;;;;;;4.53;50.34;99244.72;6732849;29;20200;-81
2024/01/13 15:36:39;;;;;;;59.50;31.67;;;;;;;4.26;50.85;99242.16;6731997;29;20228;-83
2024/01/13 15:40:00;;;;;;;83.63;40.70;;;;;;;4.17;51.09;99237.78;6731007;29;20342;-83